createdAt,value
2016-12-08T00:00:53.215Z,1.58
2016-12-08T00:01:53.120Z,1.5
2016-12-08T00:02:52.808Z,1.49
2016-12-08T00:03:53.419Z,1.44
2016-12-08T00:04:52.847Z,1.53
2016-12-08T00:05:52.613Z,1.49
2016-12-08T00:06:53.093Z,1.59
2016-12-08T00:07:53.340Z,1.58
2016-12-08T00:08:53.012Z,1.6
2016-12-08T00:09:52.851Z,1.56
2016-12-08T00:10:53.331Z,1.59
2016-12-08T00:11:52.408Z,1.62
2016-12-08T00:12:52.811Z,1.53
2016-12-08T00:13:53.026Z,1.55
2016-12-08T00:14:53.238Z,1.53
2016-12-08T00:15:53.055Z,1.56
2016-12-08T00:16:52.700Z,1.42
2016-12-08T00:17:53.623Z,1.53
2016-12-08T00:18:53.047Z,1.6
2016-12-08T00:19:53.051Z,1.63
2016-12-08T00:20:52.871Z,1.55
2016-12-08T00:21:53.699Z,1.53
2016-12-08T00:22:53.898Z,1.59
2016-12-08T00:23:54.122Z,1.6
2016-12-08T00:24:53.966Z,1.62
2016-12-08T00:25:53.402Z,1.67
2016-12-08T00:26:52.894Z,1.6
2016-12-08T00:27:52.984Z,1.62
2016-12-08T00:28:52.897Z,1.58
2016-12-08T00:29:53.185Z,1.63
2016-12-08T00:30:53.051Z,1.66
2016-12-08T00:31:53.036Z,1.67
2016-12-08T00:32:52.764Z,1.71
2016-12-08T00:33:53.999Z,1.59
2016-12-08T00:34:53.555Z,1.6
2016-12-08T00:35:53.699Z,1.67
2016-12-08T00:36:53.010Z,1.66
2016-12-08T00:37:53.046Z,1.74
2016-12-08T00:38:53.405Z,1.59
2016-12-08T00:39:52.986Z,1.62
2016-12-08T00:40:54.096Z,1.7
2016-12-08T00:41:53.388Z,1.59
2016-12-08T00:42:53.236Z,1.67
2016-12-08T00:43:53.107Z,1.7
2016-12-08T00:44:53.066Z,1.71
2016-12-08T00:45:52.946Z,1.62
2016-12-08T00:46:53.396Z,1.59
2016-12-08T00:47:54.117Z,1.6
2016-12-08T00:48:52.938Z,1.71
2016-12-08T00:49:53.688Z,1.63
2016-12-08T00:50:53.432Z,1.73
2016-12-08T00:51:53.532Z,1.73
2016-12-08T00:52:53.490Z,1.8
2016-12-08T00:53:54.265Z,1.8
2016-12-08T00:54:53.489Z,1.84
2016-12-08T00:55:53.201Z,1.87
2016-12-08T00:56:53.911Z,1.81
2016-12-08T00:57:53.872Z,1.81
2016-12-08T00:58:53.370Z,1.78
2016-12-08T00:59:53.175Z,1.8
2016-12-08T01:00:53.585Z,1.8
2016-12-08T01:01:53.381Z,1.8
2016-12-08T01:02:53.661Z,1.81
2016-12-08T01:03:53.983Z,1.81
2016-12-08T01:04:53.110Z,1.7
2016-12-08T01:05:53.746Z,1.77
2016-12-08T01:06:55.177Z,1.68
2016-12-08T01:07:54.269Z,1.63
2016-12-08T01:08:53.709Z,1.62
2016-12-08T01:09:53.979Z,1.66
2016-12-08T01:10:53.893Z,1.68
2016-12-08T01:11:54.308Z,1.7
2016-12-08T01:12:53.571Z,1.73
2016-12-08T01:13:54.074Z,1.78
2016-12-08T01:14:53.246Z,1.73
2016-12-08T01:15:53.564Z,1.74
2016-12-08T01:16:53.786Z,1.7
2016-12-08T01:17:54.331Z,1.73
2016-12-08T01:18:53.780Z,1.78
2016-12-08T01:19:53.650Z,1.78
2016-12-08T01:20:53.626Z,1.84
2016-12-08T01:21:53.382Z,1.85
2016-12-08T01:22:54.367Z,1.81
2016-12-08T01:23:54.345Z,1.84
2016-12-08T01:24:53.658Z,1.85
2016-12-08T01:25:53.611Z,1.91
2016-12-08T01:26:53.341Z,1.84
2016-12-08T01:27:53.698Z,1.85
2016-12-08T01:28:53.864Z,1.89
2016-12-08T01:29:53.666Z,1.87
2016-12-08T01:30:53.517Z,1.84
2016-12-08T01:31:53.625Z,1.73
2016-12-08T01:32:54.358Z,1.76
2016-12-08T01:33:54.574Z,1.71
2016-12-08T01:34:53.772Z,1.74
2016-12-08T01:35:54.218Z,1.63
2016-12-08T01:36:55.052Z,1.71
2016-12-08T01:37:53.440Z,1.74
2016-12-08T01:38:54.365Z,1.6
2016-12-08T01:39:54.382Z,1.63
2016-12-08T01:40:54.562Z,1.6
2016-12-08T01:41:53.827Z,1.71
2016-12-08T01:42:54.698Z,1.6
2016-12-08T01:43:53.871Z,1.63
2016-12-08T01:44:54.301Z,1.56
2016-12-08T01:45:54.049Z,1.53
2016-12-08T01:46:54.130Z,1.67
2016-12-08T01:47:54.195Z,1.62
2016-12-08T01:48:54.267Z,1.56
2016-12-08T01:49:53.817Z,1.6
2016-12-08T01:50:54.152Z,1.7
2016-12-08T01:51:55.182Z,1.76
2016-12-08T01:52:54.368Z,1.78
2016-12-08T01:53:53.870Z,1.78
2016-12-08T01:54:54.215Z,1.68
2016-12-08T01:55:54.223Z,1.71
2016-12-08T01:56:53.978Z,1.71
2016-12-08T01:57:54.248Z,1.74
2016-12-08T01:58:54.142Z,1.78
2016-12-08T01:59:54.175Z,1.8
2016-12-08T02:00:54.785Z,1.73
2016-12-08T02:01:53.860Z,1.71
2016-12-08T02:02:55.113Z,1.63
2016-12-08T02:03:54.230Z,1.63
2016-12-08T02:04:54.238Z,1.66
2016-12-08T02:05:54.311Z,1.71
2016-12-08T02:06:54.139Z,1.67
2016-12-08T02:07:54.618Z,1.67
2016-12-08T02:08:54.326Z,1.53
2016-12-08T02:09:54.290Z,1.58
2016-12-08T02:10:55.092Z,1.59
2016-12-08T02:11:54.246Z,1.52
2016-12-08T02:12:55.184Z,1.56
2016-12-08T02:13:54.781Z,1.49
2016-12-08T02:14:55.059Z,1.49
2016-12-08T02:15:54.253Z,1.58
2016-12-08T02:16:54.519Z,1.48
2016-12-08T02:17:54.982Z,1.48
2016-12-08T02:18:54.602Z,1.42
2016-12-08T02:19:54.897Z,1.41
2016-12-08T02:20:54.730Z,1.38
2016-12-08T02:21:54.705Z,1.26
2016-12-08T02:22:56.227Z,1.42
2016-12-08T02:23:55.474Z,1.26
2016-12-08T02:24:54.479Z,1.24
2016-12-08T02:25:54.289Z,1.44
2016-12-08T02:26:55.072Z,1.35
2016-12-08T02:27:54.348Z,1.19
2016-12-08T02:28:54.684Z,1.31
2016-12-08T02:29:54.784Z,1.2
2016-12-08T02:30:55.089Z,1.17
2016-12-08T02:31:54.755Z,1.22
2016-12-08T02:32:54.157Z,1.23
2016-12-08T02:33:54.609Z,1.19
2016-12-08T02:34:54.398Z,1.16
2016-12-08T02:35:54.830Z,1.05
2016-12-08T02:36:54.382Z,1.1
2016-12-08T02:37:54.474Z,1.01
2016-12-08T02:38:54.734Z,1.05
2016-12-08T02:39:55.572Z,1.05
2016-12-08T02:40:55.082Z,0.92
2016-12-08T02:41:55.710Z,0.95
2016-12-08T02:42:54.828Z,0.99
2016-12-08T02:43:55.344Z,1.04
2016-12-08T02:44:55.026Z,0.96
2016-12-08T02:45:54.471Z,1.04
2016-12-08T02:46:54.679Z,0.94
2016-12-08T02:47:54.320Z,0.96
2016-12-08T02:48:54.480Z,0.95
2016-12-08T02:49:54.860Z,0.95
2016-12-08T02:50:55.400Z,1.01
2016-12-08T02:51:54.496Z,0.99
2016-12-08T02:52:55.479Z,1.01
2016-12-08T02:53:54.615Z,0.88
2016-12-08T02:54:54.626Z,1.04
2016-12-08T02:55:54.597Z,0.94
2016-12-08T02:56:54.990Z,1.05
2016-12-08T02:57:55.400Z,1.14
2016-12-08T02:58:55.089Z,1.17
2016-12-08T02:59:54.761Z,1.22
2016-12-08T03:00:55.234Z,1.14
2016-12-08T03:01:55.196Z,1.19
2016-12-08T03:02:54.919Z,1.16
2016-12-08T03:03:55.824Z,1.2
2016-12-08T03:04:54.685Z,0.99
2016-12-08T03:05:54.764Z,1.04
2016-12-08T03:06:55.266Z,0.95
2016-12-08T03:07:55.424Z,1.02
2016-12-08T03:08:55.056Z,1.05
2016-12-08T03:09:55.493Z,0.94
2016-12-08T03:10:55.659Z,1.04
2016-12-08T03:11:54.728Z,1.05
2016-12-08T03:12:54.621Z,1.1
2016-12-08T03:13:54.925Z,1.02
2016-12-08T03:14:55.234Z,1.04
2016-12-08T03:15:55.738Z,1.14
2016-12-08T03:16:55.527Z,1.14
2016-12-08T03:17:56.136Z,1.16
2016-12-08T03:18:55.481Z,1.06
2016-12-08T03:19:55.867Z,0.99
2016-12-08T03:20:55.430Z,1.01
2016-12-08T03:21:55.637Z,0.94
2016-12-08T03:22:55.209Z,1.02
2016-12-08T03:23:55.394Z,0.99
2016-12-08T03:24:55.424Z,1.04
2016-12-08T03:25:55.297Z,0.99
2016-12-08T03:26:54.867Z,0.87
2016-12-08T03:27:55.086Z,1.01
2016-12-08T03:28:55.844Z,1.01
2016-12-08T03:29:55.224Z,0.96
2016-12-08T03:30:55.630Z,0.96
2016-12-08T03:31:55.360Z,0.95
2016-12-08T03:32:55.769Z,0.84
2016-12-08T03:33:55.735Z,0.87
2016-12-08T03:34:58.795Z,0.84
2016-12-08T03:35:55.063Z,0.86
2016-12-08T03:36:55.584Z,0.98
2016-12-08T03:37:55.462Z,1.04
2016-12-08T03:38:55.730Z,1.08
2016-12-08T03:39:55.397Z,1.08
2016-12-08T03:40:55.436Z,0.98
2016-12-08T03:41:55.215Z,1.01
2016-12-08T03:42:55.364Z,0.91
2016-12-08T03:43:55.195Z,0.99
2016-12-08T03:44:55.500Z,1.02
2016-12-08T03:45:55.381Z,1.04
2016-12-08T03:46:55.135Z,0.99
2016-12-08T03:47:56.125Z,1.05
2016-12-08T03:48:55.691Z,1.02
2016-12-08T03:49:56.035Z,1.01
2016-12-08T03:50:55.284Z,1.01
2016-12-08T03:51:55.326Z,0.96
2016-12-08T03:52:56.088Z,1.05
2016-12-08T03:53:55.462Z,1.06
2016-12-08T03:54:55.648Z,1.1
2016-12-08T03:55:55.839Z,1.05
2016-12-08T03:56:55.584Z,1.04
2016-12-08T03:57:55.588Z,0.98
2016-12-08T03:58:55.863Z,1.05
2016-12-08T03:59:56.153Z,0.96
2016-12-08T04:00:55.266Z,1.02
2016-12-08T04:01:55.802Z,1.05
2016-12-08T04:02:56.038Z,0.91
2016-12-08T04:03:56.185Z,0.94
2016-12-08T04:04:56.028Z,0.84
2016-12-08T04:05:56.004Z,0.88
2016-12-08T04:06:55.845Z,0.8
2016-12-08T04:07:55.446Z,0.7
2016-12-08T04:08:55.990Z,0.83
2016-12-08T04:09:55.380Z,0.77
2016-12-08T04:10:56.175Z,0.68
2016-12-08T04:11:56.131Z,0.68
2016-12-08T04:12:55.728Z,0.65
2016-12-08T04:13:55.918Z,0.73
2016-12-08T04:14:55.943Z,0.84
2016-12-08T04:15:55.436Z,0.81
2016-12-08T04:16:55.432Z,0.96
2016-12-08T04:17:56.147Z,1.01
2016-12-08T04:18:56.103Z,1.02
2016-12-08T04:19:55.614Z,1.01
2016-12-08T04:20:56.082Z,1.01
2016-12-08T04:21:55.712Z,1.1
2016-12-08T04:22:56.073Z,1.13
2016-12-08T04:23:55.994Z,1.14
2016-12-08T04:24:55.856Z,1.16
2016-12-08T04:25:55.981Z,1.19
2016-12-08T04:26:55.887Z,1.24
2016-12-08T04:27:55.562Z,1.13
2016-12-08T04:28:55.747Z,1.3
2016-12-08T04:29:55.507Z,1.26
2016-12-08T04:30:56.535Z,1.19
2016-12-08T04:31:56.558Z,1.22
2016-12-08T04:32:56.375Z,1.22
2016-12-08T04:33:56.173Z,1.13
2016-12-08T04:34:55.713Z,1.13
2016-12-08T04:35:55.873Z,1.19
2016-12-08T04:36:56.095Z,1.12
2016-12-08T04:37:56.585Z,1.2
2016-12-08T04:38:55.829Z,1.19
2016-12-08T04:39:56.135Z,1.19
2016-12-08T04:40:56.325Z,1.2
2016-12-08T04:41:56.208Z,1.16
2016-12-08T04:42:56.383Z,1.16
2016-12-08T04:43:56.311Z,1.16
2016-12-08T04:44:56.151Z,1.17
2016-12-08T04:45:55.888Z,1.05
2016-12-08T04:46:55.985Z,1.19
2016-12-08T04:47:55.846Z,1.16
2016-12-08T04:48:56.172Z,1.12
2016-12-08T04:49:56.100Z,1.14
2016-12-08T04:50:56.295Z,1.26
2016-12-08T04:51:55.822Z,1.1
2016-12-08T04:52:56.789Z,1.14
2016-12-08T04:53:56.018Z,1.17
2016-12-08T04:54:56.473Z,1.22
2016-12-08T04:55:56.520Z,1.17
2016-12-08T04:56:56.374Z,1.14
2016-12-08T04:57:56.254Z,1.19
2016-12-08T04:58:57.099Z,1.19
2016-12-08T04:59:56.150Z,1.19
2016-12-08T05:00:56.085Z,1.16
2016-12-08T05:01:56.963Z,1.17
2016-12-08T05:02:56.856Z,1.14
2016-12-08T05:03:56.288Z,1.16
2016-12-08T05:04:56.606Z,1.17
2016-12-08T05:05:57.133Z,1.12
2016-12-08T05:06:56.136Z,1.17
2016-12-08T05:07:56.516Z,1.13
2016-12-08T05:08:56.120Z,1.12
2016-12-08T05:09:57.150Z,1.02
2016-12-08T05:10:56.582Z,1.05
2016-12-08T05:11:57.345Z,1.1
2016-12-08T05:12:57.095Z,1.12
2016-12-08T05:13:56.491Z,1.05
2016-12-08T05:14:57.254Z,1.19
2016-12-08T05:15:56.524Z,1.16
2016-12-08T05:16:56.575Z,1.13
2016-12-08T05:17:56.764Z,1.05
2016-12-08T05:18:56.657Z,1.02
2016-12-08T05:19:56.509Z,1.05
2016-12-08T05:20:56.494Z,0.99
2016-12-08T05:21:56.868Z,0.96
2016-12-08T05:22:56.227Z,1.02
2016-12-08T05:23:57.232Z,1.02
2016-12-08T05:24:57.402Z,0.99
2016-12-08T05:25:57.339Z,0.99
2016-12-08T05:26:57.736Z,1.12
2016-12-08T05:27:57.922Z,1.1
2016-12-08T05:28:57.870Z,1.08
2016-12-08T05:29:56.994Z,1.05
2016-12-08T05:30:56.965Z,1.17
2016-12-08T05:31:57.554Z,1.13
2016-12-08T05:32:56.397Z,1.14
2016-12-08T05:33:58.316Z,1.2
2016-12-08T05:34:57.327Z,1.31
2016-12-08T05:35:57.754Z,1.19
2016-12-08T05:36:57.076Z,1.12
2016-12-08T05:37:56.823Z,1.16
2016-12-08T05:38:57.046Z,1.2
2016-12-08T05:39:56.737Z,1.3
2016-12-08T05:40:57.882Z,1.2
2016-12-08T05:41:56.659Z,1.19
2016-12-08T05:42:56.931Z,1.1
2016-12-08T05:43:56.744Z,1.17
2016-12-08T05:44:57.741Z,1.2
2016-12-08T05:45:57.681Z,1.16
2016-12-08T05:46:57.567Z,1.24
2016-12-08T05:47:57.739Z,1.22
2016-12-08T05:48:56.770Z,1.12
2016-12-08T05:49:57.346Z,1.16
2016-12-08T05:50:58.018Z,1.24
2016-12-08T05:51:57.890Z,1.23
2016-12-08T05:52:57.259Z,1.35
2016-12-08T05:53:57.210Z,1.32
2016-12-08T05:54:57.696Z,1.31
2016-12-08T05:55:57.701Z,1.2
2016-12-08T05:56:56.677Z,1.24
2016-12-08T05:57:57.626Z,1.22
2016-12-08T05:58:57.303Z,1.16
2016-12-08T05:59:57.254Z,1.22
2016-12-08T06:00:57.548Z,1.2
2016-12-08T06:01:58.052Z,1.24
2016-12-08T06:02:58.506Z,1.22
2016-12-08T06:03:56.910Z,1.22
2016-12-08T06:04:56.949Z,1.23
2016-12-08T06:05:56.974Z,1.23
2016-12-08T06:06:58.097Z,1.13
2016-12-08T06:07:57.969Z,1.14
2016-12-08T06:08:58.008Z,1.28
2016-12-08T06:09:57.949Z,1.31
2016-12-08T06:10:58.719Z,1.23
2016-12-08T06:11:58.545Z,1.35
2016-12-08T06:12:58.414Z,1.23
2016-12-08T06:13:57.607Z,1.28
2016-12-08T06:14:57.239Z,1.24
2016-12-08T06:15:57.255Z,1.17
2016-12-08T06:16:57.957Z,1.31
2016-12-08T06:17:57.731Z,1.22
2016-12-08T06:18:56.762Z,1.26
2016-12-08T06:19:57.787Z,1.2
2016-12-08T06:20:57.998Z,1.24
2016-12-08T06:21:57.279Z,1.16
2016-12-08T06:22:58.926Z,1.08
2016-12-08T06:23:57.351Z,1.16
2016-12-08T06:24:57.900Z,1.14
2016-12-08T06:25:57.503Z,1.19
2016-12-08T06:26:57.044Z,1.12
2016-12-08T06:27:57.571Z,1.13
2016-12-08T06:28:57.612Z,1.12
2016-12-08T06:29:57.468Z,1.05
2016-12-08T06:30:57.482Z,1.16
2016-12-08T06:31:57.278Z,1.06
2016-12-08T06:32:57.288Z,1.14
2016-12-08T06:33:57.779Z,1.17
2016-12-08T06:34:58.210Z,1.05
2016-12-08T06:35:58.538Z,1.02
2016-12-08T06:36:57.608Z,0.99
2016-12-08T06:37:57.529Z,0.95
2016-12-08T06:38:57.468Z,0.94
2016-12-08T06:39:58.039Z,0.92
2016-12-08T06:40:58.480Z,0.95
2016-12-08T06:41:57.878Z,0.96
2016-12-08T06:42:57.378Z,0.87
2016-12-08T06:43:57.119Z,0.94
2016-12-08T06:44:58.259Z,0.87
2016-12-08T06:45:57.154Z,0.95
2016-12-08T06:46:57.511Z,0.83
2016-12-08T06:47:58.065Z,0.81
2016-12-08T06:48:57.209Z,0.83
2016-12-08T06:49:58.175Z,0.84
2016-12-08T06:50:57.552Z,0.87
2016-12-08T06:51:57.603Z,0.95
2016-12-08T06:52:57.776Z,0.95
2016-12-08T06:53:57.815Z,0.98
2016-12-08T06:54:57.952Z,1.01
2016-12-08T06:55:57.506Z,0.98
2016-12-08T06:56:57.439Z,1.02
2016-12-08T06:57:58.209Z,0.98
2016-12-08T06:58:57.854Z,1.04
2016-12-08T06:59:57.474Z,1.04
2016-12-08T07:00:57.543Z,0.98
2016-12-08T07:01:57.715Z,0.98
2016-12-08T07:02:57.947Z,1.02
2016-12-08T07:03:57.470Z,1.02
2016-12-08T07:04:57.424Z,0.99
2016-12-08T07:05:57.468Z,1.06
2016-12-08T07:06:58.460Z,1.06
2016-12-08T07:07:58.118Z,1.02
2016-12-08T07:08:57.292Z,1.14
2016-12-08T07:09:57.872Z,1.16
2016-12-08T07:10:57.646Z,1.12
2016-12-08T07:11:57.492Z,1.16
2016-12-08T07:12:57.931Z,0.99
2016-12-08T07:13:58.008Z,1.05
2016-12-08T07:14:58.338Z,1.08
2016-12-08T07:15:58.477Z,0.96
2016-12-08T07:16:58.313Z,1.05
2016-12-08T07:17:58.253Z,0.99
2016-12-08T07:18:58.516Z,0.99
2016-12-08T07:19:57.855Z,1.02
2016-12-08T07:20:59.851Z,1.12
2016-12-08T07:21:57.921Z,1.04
2016-12-08T07:22:57.860Z,0.99
2016-12-08T07:23:58.083Z,0.96
2016-12-08T07:24:58.048Z,1.01
2016-12-08T07:25:58.203Z,0.95
2016-12-08T07:26:58.281Z,0.96
2016-12-08T07:27:58.182Z,0.96
2016-12-08T07:28:58.878Z,1.02
2016-12-08T07:29:57.871Z,0.92
2016-12-08T07:30:58.063Z,0.99
2016-12-08T07:31:57.902Z,0.94
2016-12-08T07:32:57.935Z,0.99
2016-12-08T07:33:58.151Z,1.14
2016-12-08T07:34:57.987Z,1.1
2016-12-08T07:35:57.846Z,1.13
2016-12-08T07:36:58.233Z,1.05
2016-12-08T07:37:58.066Z,1.16
2016-12-08T07:38:58.419Z,1.17
2016-12-08T07:39:59.069Z,1.16
2016-12-08T07:40:58.578Z,1.12
2016-12-08T07:41:59.523Z,1.14
2016-12-08T07:42:59.585Z,1.1
2016-12-08T07:43:58.738Z,1.13
2016-12-08T07:44:58.677Z,1.14
2016-12-08T07:45:58.713Z,1.1
2016-12-08T07:46:58.588Z,1.17
2016-12-08T07:47:58.505Z,1.2
2016-12-08T07:48:58.407Z,1.14
2016-12-08T07:49:58.821Z,1.26
2016-12-08T07:50:58.461Z,1.19
2016-12-08T07:51:58.610Z,1.17
2016-12-08T07:52:58.487Z,1.14
2016-12-08T07:53:57.921Z,1.14
2016-12-08T07:54:58.596Z,1.13
2016-12-08T07:55:58.469Z,1.17
2016-12-08T07:56:58.726Z,1.17
2016-12-08T07:57:57.956Z,1.16
2016-12-08T07:58:58.032Z,1.16
2016-12-08T07:59:59.621Z,1.17
2016-12-08T08:00:58.625Z,1.16
2016-12-08T08:01:58.154Z,1.19
2016-12-08T08:02:58.403Z,1.24
2016-12-08T08:03:58.200Z,1.24
2016-12-08T08:04:58.397Z,1.24
2016-12-08T08:05:58.032Z,1.32
2016-12-08T08:06:58.573Z,1.41
2016-12-08T08:07:58.850Z,1.34
2016-12-08T08:08:58.844Z,1.31
2016-12-08T08:09:58.024Z,1.35
2016-12-08T08:10:58.434Z,1.34
2016-12-08T08:11:58.521Z,1.41
2016-12-08T08:12:58.014Z,1.48
2016-12-08T08:13:58.527Z,1.45
2016-12-08T08:14:58.378Z,1.55
2016-12-08T08:15:58.656Z,1.49
2016-12-08T08:16:58.379Z,1.52
2016-12-08T08:17:58.725Z,1.55
2016-12-08T08:18:58.630Z,1.52
2016-12-08T08:19:58.891Z,1.53
2016-12-08T08:20:58.591Z,1.56
2016-12-08T08:21:58.680Z,1.59
2016-12-08T08:22:58.901Z,1.59
2016-12-08T08:23:59.117Z,1.5
2016-12-08T08:24:59.092Z,1.59
2016-12-08T08:25:59.059Z,1.56
2016-12-08T08:26:58.899Z,1.53
2016-12-08T08:27:58.868Z,1.53
2016-12-08T08:28:58.185Z,1.56
2016-12-08T08:29:58.959Z,1.56
2016-12-08T08:30:59.056Z,1.62
2016-12-08T08:31:58.362Z,1.63
2016-12-08T08:32:58.806Z,1.67
2016-12-08T08:33:58.274Z,1.74
2016-12-08T08:34:58.583Z,1.76
2016-12-08T08:35:58.763Z,1.73
2016-12-08T08:36:59.239Z,1.68
2016-12-08T08:37:59.557Z,1.74
2016-12-08T08:38:58.516Z,1.68
2016-12-08T08:39:58.288Z,1.7
2016-12-08T08:40:59.225Z,1.77
2016-12-08T08:41:58.656Z,1.78
2016-12-08T08:42:59.382Z,1.81
2016-12-08T08:43:58.902Z,1.81
2016-12-08T08:44:59.205Z,1.84
2016-12-08T08:45:59.036Z,1.94
2016-12-08T08:46:59.108Z,1.94
2016-12-08T08:47:58.618Z,2
2016-12-08T08:48:59.013Z,2
2016-12-08T08:49:59.104Z,1.95
2016-12-08T08:50:59.343Z,2.07
2016-12-08T08:51:59.165Z,2.04
2016-12-08T08:52:59.077Z,2.14
2016-12-08T08:53:58.592Z,2.1
2016-12-08T08:54:58.582Z,2.11
2016-12-08T08:55:59.464Z,2.14
2016-12-08T08:56:59.500Z,2.14
2016-12-08T08:57:59.314Z,2.11
2016-12-08T08:58:59.007Z,2.07
2016-12-08T08:59:58.740Z,2.11
2016-12-08T09:00:59.116Z,2.1
2016-12-08T09:01:59.105Z,2.08
2016-12-08T09:02:59.099Z,2.08
2016-12-08T09:03:58.964Z,2.13
2016-12-08T09:04:58.802Z,2.08
2016-12-08T09:05:58.812Z,2.07
2016-12-08T09:07:00.039Z,2.17
2016-12-08T09:07:59.728Z,2.14
2016-12-08T09:08:59.202Z,2.15
2016-12-08T09:09:58.797Z,2.18
2016-12-08T09:10:59.015Z,2.29
2016-12-08T09:11:59.388Z,2.44
2016-12-08T09:12:59.085Z,2.51
2016-12-08T09:13:59.419Z,2.46
2016-12-08T09:14:59.472Z,2.46
2016-12-08T09:15:59.005Z,2.38
2016-12-08T09:16:59.599Z,2.29
2016-12-08T09:17:59.321Z,2.18
2016-12-08T09:18:59.286Z,2.2
2016-12-08T09:19:59.294Z,2.24
2016-12-08T09:20:59.740Z,2.29
2016-12-08T09:21:59.788Z,2.2
2016-12-08T09:22:59.332Z,2.17
2016-12-08T09:23:59.672Z,2.1
2016-12-08T09:24:59.365Z,2.2
2016-12-08T09:25:59.576Z,2.17
2016-12-08T09:26:59.078Z,2.1
2016-12-08T09:27:59.765Z,2.11
2016-12-08T09:28:59.203Z,2.17
2016-12-08T09:29:59.283Z,2.17
2016-12-08T09:30:59.173Z,2.18
2016-12-08T09:31:59.239Z,2.29
2016-12-08T09:32:59.260Z,2.22
2016-12-08T09:33:59.572Z,2.22
2016-12-08T09:34:59.661Z,2.17
2016-12-08T09:35:59.475Z,2.22
2016-12-08T09:36:59.595Z,2.28
2016-12-08T09:37:59.657Z,2.47
2016-12-08T09:39:00.033Z,2.61
2016-12-08T09:39:59.940Z,2.82
2016-12-08T09:41:00.044Z,2.95
2016-12-08T09:41:59.858Z,3.04
2016-12-08T09:42:59.950Z,3.11
2016-12-08T09:43:59.693Z,3.21
2016-12-08T09:44:59.844Z,3.31
2016-12-08T09:45:59.167Z,3.31
2016-12-08T09:46:59.281Z,3.47
2016-12-08T09:48:00.036Z,3.44
2016-12-08T09:48:59.165Z,3.4
2016-12-08T09:49:59.317Z,3.6
2016-12-08T09:51:00.580Z,3.51
2016-12-08T09:51:59.693Z,3.51
2016-12-08T09:53:00.473Z,3.34
2016-12-08T09:53:59.510Z,3.19
2016-12-08T09:55:00.005Z,3.16
2016-12-08T09:56:00.115Z,3.11
2016-12-08T09:57:00.281Z,3.1
2016-12-08T09:57:59.864Z,3.16
2016-12-08T09:59:00.021Z,3.13
2016-12-08T10:00:00.042Z,3.11
2016-12-08T10:01:00.270Z,3.47
2016-12-08T10:01:59.530Z,3.36
2016-12-08T10:02:59.854Z,3.44
2016-12-08T10:04:00.308Z,3.5
2016-12-08T10:04:59.502Z,3.5
2016-12-08T10:06:00.396Z,3.65
2016-12-08T10:06:59.797Z,3.63
2016-12-08T10:08:00.166Z,3.6
2016-12-08T10:08:59.622Z,3.5
2016-12-08T10:09:59.455Z,3.45
2016-12-08T10:11:00.152Z,3.4
2016-12-08T10:12:00.679Z,3.4
2016-12-08T10:12:59.892Z,3.18
2016-12-08T10:13:59.914Z,3.19
2016-12-08T10:14:59.822Z,3.22
2016-12-08T10:15:59.980Z,3.26
2016-12-08T10:16:59.945Z,3.19
2016-12-08T10:18:01.640Z,3.19
2016-12-08T10:19:00.156Z,3.23
2016-12-08T10:20:00.097Z,3.19
2016-12-08T10:21:00.509Z,3.29
2016-12-08T10:21:59.975Z,3.29
2016-12-08T10:23:00.485Z,3.19
2016-12-08T10:24:00.585Z,3.29
2016-12-08T10:25:00.101Z,3.19
2016-12-08T10:26:00.496Z,3.21
2016-12-08T10:26:59.782Z,3.29
2016-12-08T10:28:00.455Z,3.41
2016-12-08T10:28:59.927Z,3.29
2016-12-08T10:30:00.314Z,3.42
2016-12-08T10:30:59.967Z,3.47
2016-12-08T10:32:00.479Z,3.41
2016-12-08T10:33:00.253Z,3.4
2016-12-08T10:34:00.631Z,3.28
2016-12-08T10:35:00.247Z,3.36
2016-12-08T10:36:01.007Z,3.4
2016-12-08T10:36:59.924Z,3.51
2016-12-08T10:38:00.428Z,3.51
2016-12-08T10:39:00.489Z,3.5
2016-12-08T10:40:00.138Z,3.47
2016-12-08T10:41:00.028Z,3.48
2016-12-08T10:42:00.177Z,3.51
2016-12-08T10:42:59.974Z,3.4
2016-12-08T10:44:00.602Z,3.53
2016-12-08T10:45:00.514Z,3.55
2016-12-08T10:46:00.955Z,3.59
2016-12-08T10:47:00.227Z,3.48
2016-12-08T10:48:00.756Z,3.37
2016-12-08T10:49:00.432Z,3.26
2016-12-08T10:50:00.687Z,3.21
2016-12-08T10:51:01.373Z,3.21
2016-12-08T10:52:00.361Z,3.31
2016-12-08T10:53:00.894Z,3.32
2016-12-08T10:54:00.210Z,3.23
2016-12-08T10:55:00.680Z,3.22
2016-12-08T10:56:00.534Z,3.21
2016-12-08T10:57:00.684Z,3.31
2016-12-08T10:58:00.524Z,3.21
2016-12-08T10:59:01.123Z,3.42
2016-12-08T11:00:00.394Z,3.53
2016-12-08T11:01:00.804Z,3.6
2016-12-08T11:02:00.779Z,3.56
2016-12-08T11:03:00.800Z,3.56
2016-12-08T11:04:00.285Z,3.58
2016-12-08T11:05:00.570Z,3.53
2016-12-08T11:06:00.437Z,3.51
2016-12-08T11:07:00.687Z,3.5
2016-12-08T11:08:01.002Z,3.58
2016-12-08T11:09:01.741Z,3.59
2016-12-08T11:10:00.808Z,3.4
2016-12-08T11:11:00.806Z,3.47
2016-12-08T11:12:00.920Z,3.47
2016-12-08T11:13:01.224Z,3.47
2016-12-08T11:14:00.656Z,3.36
2016-12-08T11:15:01.078Z,3.42
2016-12-08T11:16:01.397Z,3.41
2016-12-08T11:17:01.097Z,3.56
2016-12-08T11:18:00.551Z,3.47
2016-12-08T11:19:00.863Z,3.58
2016-12-08T11:20:01.070Z,3.58
2016-12-08T11:21:01.706Z,3.65
2016-12-08T11:22:00.777Z,3.66
2016-12-08T11:23:00.731Z,3.73
2016-12-08T11:24:00.787Z,3.73
2016-12-08T11:25:01.176Z,3.83
2016-12-08T11:26:02.150Z,3.87
2016-12-08T11:27:01.251Z,3.92
2016-12-08T11:28:01.331Z,3.87
2016-12-08T11:29:00.671Z,3.98
2016-12-08T11:30:00.915Z,3.92
2016-12-08T11:31:01.459Z,3.92
2016-12-08T11:32:01.121Z,3.81
2016-12-08T11:33:01.133Z,3.92
2016-12-08T11:34:01.398Z,3.76
2016-12-08T11:35:00.699Z,3.87
2016-12-08T11:36:01.680Z,3.86
2016-12-08T11:37:01.192Z,3.73
2016-12-08T11:38:01.710Z,3.68
2016-12-08T11:39:01.697Z,3.6
2016-12-08T11:40:01.473Z,3.6
2016-12-08T11:41:01.656Z,3.62
2016-12-08T11:42:01.341Z,3.65
2016-12-08T11:43:02.000Z,3.6
2016-12-08T11:44:01.905Z,3.66
2016-12-08T11:45:01.232Z,3.59
2016-12-08T11:46:01.815Z,3.69
2016-12-08T11:47:01.623Z,3.74
2016-12-08T11:48:01.271Z,3.73
2016-12-08T11:49:02.299Z,3.6
2016-12-08T11:50:01.440Z,3.68
2016-12-08T11:51:01.351Z,3.68
2016-12-08T11:52:01.283Z,3.73
2016-12-08T11:53:02.018Z,3.73
2016-12-08T11:54:01.387Z,3.55
2016-12-08T11:55:01.758Z,3.69
2016-12-08T11:56:01.395Z,3.66
2016-12-08T11:57:01.283Z,3.58
2016-12-08T11:58:01.399Z,3.6
2016-12-08T11:59:01.729Z,3.59
2016-12-08T12:00:01.980Z,3.56
2016-12-08T12:01:02.095Z,3.5
2016-12-08T12:02:01.272Z,3.55
2016-12-08T12:03:01.929Z,3.37
2016-12-08T12:04:02.040Z,3.44
2016-12-08T12:05:01.245Z,3.45
2016-12-08T12:06:01.810Z,3.44
2016-12-08T12:07:02.071Z,3.32
2016-12-08T12:08:02.004Z,3.37
2016-12-08T12:09:01.712Z,3.31
2016-12-08T12:10:02.157Z,3.32
2016-12-08T12:11:02.378Z,3.29
2016-12-08T12:12:02.199Z,3.28
2016-12-08T12:13:02.629Z,3.28
2016-12-08T12:14:02.082Z,3.23
2016-12-08T12:15:02.416Z,3.28
2016-12-08T12:16:02.236Z,3.26
2016-12-08T12:17:02.004Z,3.19
2016-12-08T12:18:01.603Z,3.26
2016-12-08T12:19:02.093Z,3.31
2016-12-08T12:20:02.537Z,3.44
2016-12-08T12:21:01.939Z,3.32
2016-12-08T12:22:02.016Z,3.44
2016-12-08T12:23:02.772Z,3.41
2016-12-08T12:24:01.672Z,3.37
2016-12-08T12:25:01.765Z,3.48
2016-12-08T12:26:01.930Z,3.37
2016-12-08T12:27:01.970Z,3.47
2016-12-08T12:28:02.006Z,3.41
2016-12-08T12:29:02.709Z,3.44
2016-12-08T12:30:02.049Z,3.4
2016-12-08T12:31:02.002Z,3.58
2016-12-08T12:32:01.869Z,3.62
2016-12-08T12:33:03.290Z,3.62
2016-12-08T12:34:01.914Z,3.58
2016-12-08T12:35:02.825Z,3.62
2016-12-08T12:36:02.146Z,3.63
2016-12-08T12:37:01.939Z,3.66
2016-12-08T12:38:03.077Z,3.7
2016-12-08T12:39:02.206Z,3.73
2016-12-08T12:40:02.890Z,3.86
2016-12-08T12:41:02.368Z,4.13
2016-12-08T12:42:02.637Z,4.17
2016-12-08T12:43:01.925Z,4.19
2016-12-08T12:44:02.980Z,4.22
2016-12-08T12:45:02.302Z,4.13
2016-12-08T12:46:02.654Z,4.38
2016-12-08T12:47:02.308Z,4.45
2016-12-08T12:48:02.212Z,4.41
2016-12-08T12:49:02.573Z,4.41
2016-12-08T12:50:01.882Z,4.41
2016-12-08T12:51:02.588Z,4.3
2016-12-08T12:52:02.194Z,4.26
2016-12-08T12:53:02.436Z,4.35
2016-12-08T12:54:03.228Z,4.17
2016-12-08T12:55:02.566Z,4.41
2016-12-08T12:56:02.348Z,4.49
2016-12-08T12:57:02.358Z,4.4
2016-12-08T12:58:03.258Z,4.41
2016-12-08T12:59:02.392Z,4.48
2016-12-08T13:00:02.695Z,4.4
2016-12-08T13:01:02.558Z,4.32
2016-12-08T13:02:02.876Z,4.45
2016-12-08T13:03:03.018Z,4.41
2016-12-08T13:04:02.562Z,4.31
2016-12-08T13:05:02.694Z,4.37
2016-12-08T13:06:02.778Z,4.24
2016-12-08T13:07:02.701Z,4.34
2016-12-08T13:08:03.275Z,4.42
2016-12-08T13:09:02.435Z,4.13
2016-12-08T13:10:02.982Z,4.1
2016-12-08T13:11:02.396Z,3.88
2016-12-08T13:12:02.563Z,3.83
2016-12-08T13:13:03.169Z,3.83
2016-12-08T13:14:02.777Z,3.74
2016-12-08T13:15:02.651Z,3.8
2016-12-08T13:16:02.717Z,3.74
2016-12-08T13:17:03.587Z,3.73
2016-12-08T13:18:03.160Z,3.7
2016-12-08T13:19:02.295Z,3.68
2016-12-08T13:20:02.527Z,3.68
2016-12-08T13:21:03.083Z,3.7
2016-12-08T13:22:02.867Z,3.59